sensor_id;sensor_type;location;lat;lon;timestamp;pressure;altitude;pressure_sealevel;temperature;humidity
52625;BME280;38519;52.540;13.410;2022-08-06T00:02:16;101398.56;;;16.34;75.66
52625;BME280;38519;52.540;13.410;2022-08-06T00:04:41;101403.75;;;16.32;75.84
52625;BME280;38519;52.540;13.410;2022-08-06T00:07:07;101414.28;;;16.32;75.41
52625;BME280;38519;52.540;13.410;2022-08-06T00:09:32;101419.03;;;16.23;75.91
52625;BME280;38519;52.540;13.410;2022-08-06T00:11:58;101431.56;;;16.27;75.96
52625;BME280;38519;52.540;13.410;2022-08-06T00:14:26;101435.75;;;16.24;75.99
52625;BME280;38519;52.540;13.410;2022-08-06T00:16:51;101443.03;;;16.28;76.76
52625;BME280;38519;52.540;13.410;2022-08-06T00:19:17;101441.91;;;16.24;76.52
52625;BME280;38519;52.540;13.410;2022-08-06T00:21:42;101454.09;;;16.22;76.49
52625;BME280;38519;52.540;13.410;2022-08-06T00:24:07;101457.53;;;16.21;77.07
52625;BME280;38519;52.540;13.410;2022-08-06T00:26:32;101457.97;;;16.14;76.70
52625;BME280;38519;52.540;13.410;2022-08-06T00:28:59;101462.66;;;16.05;76.62
52625;BME280;38519;52.540;13.410;2022-08-06T00:31:24;101456.72;;;15.94;77.17
52625;BME280;38519;52.540;13.410;2022-08-06T00:33:50;101456.72;;;15.94;77.50
52625;BME280;38519;52.540;13.410;2022-08-06T00:36:15;101466.41;;;15.80;77.52
52625;BME280;38519;52.540;13.410;2022-08-06T00:38:40;101452.69;;;15.72;77.87
52625;BME280;38519;52.540;13.410;2022-08-06T00:41:05;101453.50;;;15.71;78.11
52625;BME280;38519;52.540;13.410;2022-08-06T00:43:31;101449.16;;;15.72;78.57
52625;BME280;38519;52.540;13.410;2022-08-06T00:45:56;101451.81;;;15.72;78.10
52625;BME280;38519;52.540;13.410;2022-08-06T00:48:21;101461.03;;;15.65;78.27
52625;BME280;38519;52.540;13.410;2022-08-06T00:50:48;101455.47;;;15.47;78.59
52625;BME280;38519;52.540;13.410;2022-08-06T00:53:13;101462.75;;;15.51;78.81
52625;BME280;38519;52.540;13.410;2022-08-06T00:55:38;101466.59;;;15.56;78.10
52625;BME280;38519;52.540;13.410;2022-08-06T00:58:04;101464.06;;;15.58;78.40
52625;BME280;38519;52.540;13.410;2022-08-06T01:00:29;101459.03;;;15.47;77.19
52625;BME280;38519;52.540;13.410;2022-08-06T01:02:54;101468.41;;;15.44;77.97
52625;BME280;38519;52.540;13.410;2022-08-06T01:05:20;101476.41;;;15.45;77.79
52625;BME280;38519;52.540;13.410;2022-08-06T01:07:45;101475.94;;;15.51;77.17
52625;BME280;38519;52.540;13.410;2022-08-06T01:10:10;101475.41;;;15.43;76.56
52625;BME280;38519;52.540;13.410;2022-08-06T01:12:35;101478.25;;;15.46;77.24
52625;BME280;38519;52.540;13.410;2022-08-06T01:15:01;101478.56;;;15.51;76.40
52625;BME280;38519;52.540;13.410;2022-08-06T01:17:40;101477.44;;;15.47;76.76
52625;BME280;38519;52.540;13.410;2022-08-06T01:28:03;101488.19;;;15.24;76.14
52625;BME280;38519;52.540;13.410;2022-08-06T01:30:37;101487.19;;;15.22;76.33
52625;BME280;38519;52.540;13.410;2022-08-06T01:33:07;101493.81;;;15.17;77.20
52625;BME280;38519;52.540;13.410;2022-08-06T01:35:35;101488.47;;;15.15;76.93
52625;BME280;38519;52.540;13.410;2022-08-06T01:38:19;101483.59;;;15.21;76.54
52625;BME280;38519;52.540;13.410;2022-08-06T01:40:47;101491.81;;;15.13;76.37
52625;BME280;38519;52.540;13.410;2022-08-06T01:43:14;101495.03;;;15.08;76.76
52625;BME280;38519;52.540;13.410;2022-08-06T01:45:42;101491.09;;;15.15;77.18
52625;BME280;38519;52.540;13.410;2022-08-06T01:48:13;101493.72;;;15.15;76.70
52625;BME280;38519;52.540;13.410;2022-08-06T01:50:40;101492.31;;;15.07;77.58
52625;BME280;38519;52.540;13.410;2022-08-06T01:53:06;101490.56;;;14.94;77.74
52625;BME280;38519;52.540;13.410;2022-08-06T01:55:34;101481.97;;;14.97;77.78
52625;BME280;38519;52.540;13.410;2022-08-06T01:58:02;101488.47;;;15.02;77.25
52625;BME280;38519;52.540;13.410;2022-08-06T02:00:29;101487.94;;;14.94;77.97
52625;BME280;38519;52.540;13.410;2022-08-06T02:02:59;101485.19;;;14.92;77.77
52625;BME280;38519;52.540;13.410;2022-08-06T02:05:26;101490.47;;;14.92;78.01
52625;BME280;38519;52.540;13.410;2022-08-06T02:07:52;101494.91;;;14.93;77.85
52625;BME280;38519;52.540;13.410;2022-08-06T02:10:19;101503.00;;;14.83;78.14
52625;BME280;38519;52.540;13.410;2022-08-06T02:12:46;101504.47;;;14.66;78.94
52625;BME280;38519;52.540;13.410;2022-08-06T02:15:13;101492.44;;;14.70;78.86
52625;BME280;38519;52.540;13.410;2022-08-06T02:17:41;101497.53;;;14.55;80.10
52625;BME280;38519;52.540;13.410;2022-08-06T02:20:08;101492.06;;;14.52;80.09
52625;BME280;38519;52.540;13.410;2022-08-06T02:22:35;101490.09;;;14.49;80.38
52625;BME280;38519;52.540;13.410;2022-08-06T02:25:02;101484.84;;;14.49;80.40
52625;BME280;38519;52.540;13.410;2022-08-06T02:27:27;101494.75;;;14.40;80.79
52625;BME280;38519;52.540;13.410;2022-08-06T02:29:54;101504.53;;;14.43;81.41
52625;BME280;38519;52.540;13.410;2022-08-06T02:32:20;101510.41;;;14.38;81.46
52625;BME280;38519;52.540;13.410;2022-08-06T02:34:45;101511.19;;;14.37;82.04
52625;BME280;38519;52.540;13.410;2022-08-06T02:37:15;101505.69;;;14.46;81.62
52625;BME280;38519;52.540;13.410;2022-08-06T02:39:52;101518.00;;;14.47;81.77
52625;BME280;38519;52.540;13.410;2022-08-06T02:47:13;101528.69;;;14.37;81.79
52625;BME280;38519;52.540;13.410;2022-08-06T02:49:40;101531.00;;;14.32;81.75
52625;BME280;38519;52.540;13.410;2022-08-06T02:52:27;101528.25;;;14.31;82.34
52625;BME280;38519;52.540;13.410;2022-08-06T02:54:56;101538.66;;;14.29;82.31
52625;BME280;38519;52.540;13.410;2022-08-06T02:57:23;101541.09;;;14.14;82.43
52625;BME280;38519;52.540;13.410;2022-08-06T02:59:50;101544.47;;;14.25;82.27
52625;BME280;38519;52.540;13.410;2022-08-06T03:02:17;101542.44;;;14.21;82.07
52625;BME280;38519;52.540;13.410;2022-08-06T03:04:45;101553.63;;;14.18;81.65
52625;BME280;38519;52.540;13.410;2022-08-06T03:07:12;101550.09;;;14.18;82.35
52625;BME280;38519;52.540;13.410;2022-08-06T03:09:38;101544.53;;;14.13;82.01
52625;BME280;38519;52.540;13.410;2022-08-06T03:12:05;101555.34;;;14.18;81.59
52625;BME280;38519;52.540;13.410;2022-08-06T03:14:31;101558.44;;;14.12;81.71
52625;BME280;38519;52.540;13.410;2022-08-06T03:16:57;101557.75;;;14.15;81.90
52625;BME280;38519;52.540;13.410;2022-08-06T03:19:23;101565.91;;;14.06;81.57
52625;BME280;38519;52.540;13.410;2022-08-06T03:21:49;101563.97;;;14.03;81.96
52625;BME280;38519;52.540;13.410;2022-08-06T03:24:16;101562.50;;;13.95;82.09
52625;BME280;38519;52.540;13.410;2022-08-06T03:26:42;101572.41;;;13.99;81.67
52625;BME280;38519;52.540;13.410;2022-08-06T03:29:07;101583.84;;;13.88;82.16
52625;BME280;38519;52.540;13.410;2022-08-06T03:31:34;101582.59;;;13.83;82.00
52625;BME280;38519;52.540;13.410;2022-08-06T03:34:00;101591.03;;;13.91;82.26
52625;BME280;38519;52.540;13.410;2022-08-06T03:36:26;101595.13;;;13.99;81.75
52625;BME280;38519;52.540;13.410;2022-08-06T03:38:58;101594.78;;;13.94;81.57
52625;BME280;38519;52.540;13.410;2022-08-06T03:41:24;101598.34;;;13.83;81.62
52625;BME280;38519;52.540;13.410;2022-08-06T03:43:50;101600.19;;;13.84;82.00
52625;BME280;38519;52.540;13.410;2022-08-06T03:46:20;101607.34;;;13.87;82.41
52625;BME280;38519;52.540;13.410;2022-08-06T03:48:46;101607.03;;;13.82;82.35
52625;BME280;38519;52.540;13.410;2022-08-06T03:51:13;101618.66;;;13.97;81.36
52625;BME280;38519;52.540;13.410;2022-08-06T03:53:40;101621.63;;;13.90;81.58
52625;BME280;38519;52.540;13.410;2022-08-06T03:56:06;101619.91;;;13.91;81.40
52625;BME280;38519;52.540;13.410;2022-08-06T03:58:32;101614.56;;;13.89;81.42
52625;BME280;38519;52.540;13.410;2022-08-06T04:01:01;101624.59;;;13.95;81.86
52625;BME280;38519;52.540;13.410;2022-08-06T04:03:27;101633.38;;;13.95;81.63
52625;BME280;38519;52.540;13.410;2022-08-06T04:05:53;101631.56;;;13.94;82.42
52625;BME280;38519;52.540;13.410;2022-08-06T04:08:19;101638.88;;;13.98;81.79
52625;BME280;38519;52.540;13.410;2022-08-06T04:10:46;101639.53;;;13.96;81.41
52625;BME280;38519;52.540;13.410;2022-08-06T04:13:14;101636.34;;;14.00;81.99
52625;BME280;38519;52.540;13.410;2022-08-06T04:15:39;101644.69;;;14.06;81.27
52625;BME280;38519;52.540;13.410;2022-08-06T04:18:10;101645.03;;;13.87;81.89
52625;BME280;38519;52.540;13.410;2022-08-06T04:20:37;101644.69;;;13.82;81.99
52625;BME280;38519;52.540;13.410;2022-08-06T04:23:03;101650.03;;;13.96;81.91
52625;BME280;38519;52.540;13.410;2022-08-06T04:25:36;101652.91;;;13.99;82.28
52625;BME280;38519;52.540;13.410;2022-08-06T04:28:03;101653.69;;;14.10;81.56
52625;BME280;38519;52.540;13.410;2022-08-06T04:30:29;101655.19;;;14.06;80.79
52625;BME280;38519;52.540;13.410;2022-08-06T04:32:56;101663.16;;;13.96;81.25
52625;BME280;38519;52.540;13.410;2022-08-06T04:35:21;101663.63;;;14.02;81.87
52625;BME280;38519;52.540;13.410;2022-08-06T04:37:47;101671.25;;;14.11;81.42
52625;BME280;38519;52.540;13.410;2022-08-06T04:40:13;101676.41;;;14.09;80.57
52625;BME280;38519;52.540;13.410;2022-08-06T04:42:38;101680.28;;;14.02;81.29
52625;BME280;38519;52.540;13.410;2022-08-06T04:45:05;101673.56;;;14.06;80.85
52625;BME280;38519;52.540;13.410;2022-08-06T04:47:31;101679.03;;;14.09;81.04
52625;BME280;38519;52.540;13.410;2022-08-06T04:49:57;101686.22;;;14.12;80.90
52625;BME280;38519;52.540;13.410;2022-08-06T04:52:23;101690.47;;;14.10;81.65
52625;BME280;38519;52.540;13.410;2022-08-06T04:54:49;101694.69;;;14.08;80.53
52625;BME280;38519;52.540;13.410;2022-08-06T04:57:14;101691.25;;;14.09;81.13
52625;BME280;38519;52.540;13.410;2022-08-06T04:59:39;101694.78;;;14.09;80.75
52625;BME280;38519;52.540;13.410;2022-08-06T05:02:05;101706.09;;;13.96;81.34
52625;BME280;38519;52.540;13.410;2022-08-06T05:04:30;101718.66;;;14.00;81.99
52625;BME280;38519;52.540;13.410;2022-08-06T05:07:02;101710.91;;;14.02;82.32
52625;BME280;38519;52.540;13.410;2022-08-06T05:09:30;101709.53;;;14.07;81.42
52625;BME280;38519;52.540;13.410;2022-08-06T05:12:05;101719.13;;;14.07;80.96
52625;BME280;38519;52.540;13.410;2022-08-06T05:15:07;101723.25;;;14.03;81.56
52625;BME280;38519;52.540;13.410;2022-08-06T05:17:26;101723.47;;;14.06;81.96
52625;BME280;38519;52.540;13.410;2022-08-06T05:19:58;101725.72;;;13.90;81.90
52625;BME280;38519;52.540;13.410;2022-08-06T05:22:24;101734.19;;;13.86;81.63
52625;BME280;38519;52.540;13.410;2022-08-06T05:24:50;101734.66;;;13.92;82.18
52625;BME280;38519;52.540;13.410;2022-08-06T05:27:17;101741.50;;;14.01;81.90
52625;BME280;38519;52.540;13.410;2022-08-06T05:29:43;101748.56;;;14.02;82.33
52625;BME280;38519;52.540;13.410;2022-08-06T05:32:08;101755.91;;;13.95;81.92
52625;BME280;38519;52.540;13.410;2022-08-06T05:34:33;101755.31;;;13.87;82.44
52625;BME280;38519;52.540;13.410;2022-08-06T05:36:59;101760.78;;;13.90;81.90
52625;BME280;38519;52.540;13.410;2022-08-06T05:39:24;101763.19;;;13.99;81.66
52625;BME280;38519;52.540;13.410;2022-08-06T05:41:49;101764.31;;;13.91;82.12
52625;BME280;38519;52.540;13.410;2022-08-06T05:44:15;101760.56;;;13.99;82.87
52625;BME280;38519;52.540;13.410;2022-08-06T05:46:41;101753.59;;;13.99;81.95
52625;BME280;38519;52.540;13.410;2022-08-06T05:49:13;101760.78;;;14.02;82.13
52625;BME280;38519;52.540;13.410;2022-08-06T05:51:43;101763.41;;;14.14;81.24
52625;BME280;38519;52.540;13.410;2022-08-06T05:54:27;101771.41;;;14.15;81.46
52625;BME280;38519;52.540;13.410;2022-08-06T05:57:04;101765.72;;;14.21;80.96
52625;BME280;38519;52.540;13.410;2022-08-06T05:59:31;101774.53;;;14.33;80.18
52625;BME280;38519;52.540;13.410;2022-08-06T06:01:58;101762.53;;;14.37;80.11
52625;BME280;38519;52.540;13.410;2022-08-06T06:04:24;101777.16;;;14.45;79.59
52625;BME280;38519;52.540;13.410;2022-08-06T06:06:50;101777.25;;;14.47;79.49
52625;BME280;38519;52.540;13.410;2022-08-06T06:09:15;101782.16;;;14.54;79.87
52625;BME280;38519;52.540;13.410;2022-08-06T06:11:41;101798.16;;;14.57;79.05
52625;BME280;38519;52.540;13.410;2022-08-06T06:14:10;101792.66;;;14.54;79.48
52625;BME280;38519;52.540;13.410;2022-08-06T06:19:34;101782.19;;;14.66;78.46
52625;BME280;38519;52.540;13.410;2022-08-06T06:24:46;101787.44;;;14.78;78.11
52625;BME280;38519;52.540;13.410;2022-08-06T06:27:16;101793.72;;;14.80;77.84
52625;BME280;38519;52.540;13.410;2022-08-06T06:30:01;101800.44;;;14.88;78.20
52625;BME280;38519;52.540;13.410;2022-08-06T06:42:40;101809.22;;;15.12;76.78
52625;BME280;38519;52.540;13.410;2022-08-06T06:47:37;101807.59;;;15.14;76.65
52625;BME280;38519;52.540;13.410;2022-08-06T06:50:13;101815.00;;;15.32;75.96
52625;BME280;38519;52.540;13.410;2022-08-06T06:52:41;101821.81;;;15.41;75.57
52625;BME280;38519;52.540;13.410;2022-08-06T06:55:23;101815.19;;;15.60;74.35
52625;BME280;38519;52.540;13.410;2022-08-06T06:58:00;101816.34;;;15.63;74.36
52625;BME280;38519;52.540;13.410;2022-08-06T07:00:27;101828.34;;;15.72;73.62
52625;BME280;38519;52.540;13.410;2022-08-06T07:02:53;101823.94;;;15.84;73.73
52625;BME280;38519;52.540;13.410;2022-08-06T07:05:19;101818.09;;;16.01;72.51
52625;BME280;38519;52.540;13.410;2022-08-06T07:07:45;101826.84;;;16.14;71.96
52625;BME280;38519;52.540;13.410;2022-08-06T07:10:12;101826.34;;;16.19;71.49
52625;BME280;38519;52.540;13.410;2022-08-06T07:12:39;101824.44;;;16.17;71.76
52625;BME280;38519;52.540;13.410;2022-08-06T07:15:06;101829.91;;;16.20;72.15
52625;BME280;38519;52.540;13.410;2022-08-06T07:17:32;101820.19;;;16.32;71.33
52625;BME280;38519;52.540;13.410;2022-08-06T07:20:01;101829.53;;;16.41;71.82
52625;BME280;38519;52.540;13.410;2022-08-06T07:22:27;101831.28;;;16.53;70.17
52625;BME280;38519;52.540;13.410;2022-08-06T07:24:58;101839.97;;;16.52;70.07
52625;BME280;38519;52.540;13.410;2022-08-06T07:27:24;101836.22;;;16.62;69.82
52625;BME280;38519;52.540;13.410;2022-08-06T07:29:51;101839.91;;;16.78;68.57
52625;BME280;38519;52.540;13.410;2022-08-06T07:32:17;101844.63;;;16.83;69.05
52625;BME280;38519;52.540;13.410;2022-08-06T07:34:42;101852.41;;;16.93;68.31
52625;BME280;38519;52.540;13.410;2022-08-06T07:37:09;101849.25;;;16.86;68.97
52625;BME280;38519;52.540;13.410;2022-08-06T07:39:37;101849.25;;;16.86;68.80
52625;BME280;38519;52.540;13.410;2022-08-06T07:42:06;101851.06;;;17.00;68.01
52625;BME280;38519;52.540;13.410;2022-08-06T07:44:37;101864.88;;;17.09;68.59
52625;BME280;38519;52.540;13.410;2022-08-06T07:47:02;101856.06;;;17.37;65.86
52625;BME280;38519;52.540;13.410;2022-08-06T07:49:39;101856.25;;;17.40;65.10
52625;BME280;38519;52.540;13.410;2022-08-06T07:52:05;101859.66;;;17.53;65.02
52625;BME280;38519;52.540;13.410;2022-08-06T07:54:32;101866.19;;;17.73;62.68
52625;BME280;38519;52.540;13.410;2022-08-06T07:56:57;101859.75;;;17.82;62.45
52625;BME280;38519;52.540;13.410;2022-08-06T07:59:23;101859.53;;;17.93;62.62
52625;BME280;38519;52.540;13.410;2022-08-06T08:01:49;101863.81;;;17.62;63.02
52625;BME280;38519;52.540;13.410;2022-08-06T08:04:15;101869.09;;;17.62;63.22
52625;BME280;38519;52.540;13.410;2022-08-06T08:07:00;101869.84;;;17.75;62.90
52625;BME280;38519;52.540;13.410;2022-08-06T08:09:27;101869.56;;;17.70;63.36
52625;BME280;38519;52.540;13.410;2022-08-06T08:11:52;101868.47;;;17.81;63.31
52625;BME280;38519;52.540;13.410;2022-08-06T08:14:19;101878.59;;;17.74;61.75
52625;BME280;38519;52.540;13.410;2022-08-06T08:16:45;101869.53;;;17.83;61.01
52625;BME280;38519;52.540;13.410;2022-08-06T08:19:20;101875.81;;;17.86;61.06
52625;BME280;38519;52.540;13.410;2022-08-06T08:21:49;101878.59;;;18.17;59.71
52625;BME280;38519;52.540;13.410;2022-08-06T08:24:15;101878.59;;;18.17;58.08
52625;BME280;38519;52.540;13.410;2022-08-06T08:26:41;101881.00;;;18.12;57.47
52625;BME280;38519;52.540;13.410;2022-08-06T08:29:06;101875.16;;;18.03;58.01
52625;BME280;38519;52.540;13.410;2022-08-06T08:31:31;101876.44;;;18.10;57.91
52625;BME280;38519;52.540;13.410;2022-08-06T08:33:56;101882.09;;;18.31;56.64
52625;BME280;38519;52.540;13.410;2022-08-06T08:36:22;101873.69;;;18.23;57.45
52625;BME280;38519;52.540;13.410;2022-08-06T08:38:48;101882.22;;;18.04;59.47
52625;BME280;38519;52.540;13.410;2022-08-06T08:41:15;101879.47;;;17.88;58.67
52625;BME280;38519;52.540;13.410;2022-08-06T08:43:43;101885.09;;;17.79;58.64
52625;BME280;38519;52.540;13.410;2022-08-06T08:46:09;101885.63;;;18.01;56.09
52625;BME280;38519;52.540;13.410;2022-08-06T08:48:36;101886.66;;;18.33;55.91
52625;BME280;38519;52.540;13.410;2022-08-06T08:51:02;101889.03;;;18.59;53.69
52625;BME280;38519;52.540;13.410;2022-08-06T08:53:29;101882.81;;;18.73;53.76
52625;BME280;38519;52.540;13.410;2022-08-06T08:55:54;101877.63;;;18.89;53.36
52625;BME280;38519;52.540;13.410;2022-08-06T08:58:20;101889.47;;;18.66;54.17
52625;BME280;38519;52.540;13.410;2022-08-06T09:00:46;101891.22;;;18.51;52.61
52625;BME280;38519;52.540;13.410;2022-08-06T09:03:11;101887.28;;;18.44;54.25
52625;BME280;38519;52.540;13.410;2022-08-06T09:05:37;101887.41;;;18.61;52.47
52625;BME280;38519;52.540;13.410;2022-08-06T09:08:02;101892.75;;;18.92;51.97
52625;BME280;38519;52.540;13.410;2022-08-06T09:10:28;101884.22;;;19.13;51.51
52625;BME280;38519;52.540;13.410;2022-08-06T09:12:54;101882.31;;;19.41;50.83
52625;BME280;38519;52.540;13.410;2022-08-06T09:15:19;101886.97;;;19.45;50.37
52625;BME280;38519;52.540;13.410;2022-08-06T09:17:46;101889.16;;;19.06;50.03
52625;BME280;38519;52.540;13.410;2022-08-06T09:20:12;101889.69;;;19.16;49.57
52625;BME280;38519;52.540;13.410;2022-08-06T09:22:37;101879.03;;;19.14;49.73
52625;BME280;38519;52.540;13.410;2022-08-06T09:25:03;101882.66;;;19.47;49.45
52625;BME280;38519;52.540;13.410;2022-08-06T09:27:32;101894.97;;;19.78;48.33
52625;BME280;38519;52.540;13.410;2022-08-06T09:29:58;101887.66;;;20.07;47.32
52625;BME280;38519;52.540;13.410;2022-08-06T09:35:02;101899.25;;;19.93;47.39
52625;BME280;38519;52.540;13.410;2022-08-06T09:37:28;101896.03;;;19.82;48.06
52625;BME280;38519;52.540;13.410;2022-08-06T09:39:53;101897.22;;;19.56;48.65
52625;BME280;38519;52.540;13.410;2022-08-06T09:42:41;101893.59;;;19.54;49.20
52625;BME280;38519;52.540;13.410;2022-08-06T09:45:06;101902.34;;;19.36;47.81
52625;BME280;38519;52.540;13.410;2022-08-06T09:47:32;101913.44;;;19.14;49.36
52625;BME280;38519;52.540;13.410;2022-08-06T09:49:57;101905.16;;;19.08;50.11
52625;BME280;38519;52.540;13.410;2022-08-06T09:52:22;101907.19;;;19.28;49.05
52625;BME280;38519;52.540;13.410;2022-08-06T09:54:48;101899.78;;;19.54;48.00
52625;BME280;38519;52.540;13.410;2022-08-06T09:57:13;101893.69;;;19.72;48.42
52625;BME280;38519;52.540;13.410;2022-08-06T09:59:42;101892.31;;;19.78;47.95
52625;BME280;38519;52.540;13.410;2022-08-06T10:02:12;101905.16;;;20.04;47.14
52625;BME280;38519;52.540;13.410;2022-08-06T10:04:38;101894.47;;;20.36;46.62
52625;BME280;38519;52.540;13.410;2022-08-06T10:07:03;101895.09;;;20.65;45.71
52625;BME280;38519;52.540;13.410;2022-08-06T10:09:29;101895.50;;;20.56;45.00
52625;BME280;38519;52.540;13.410;2022-08-06T10:11:57;101900.97;;;20.60;43.91
52625;BME280;38519;52.540;13.410;2022-08-06T10:14:24;101896.72;;;20.63;44.25
52625;BME280;38519;52.540;13.410;2022-08-06T10:22:31;101907.47;;;20.65;45.27
52625;BME280;38519;52.540;13.410;2022-08-06T10:24:56;101903.13;;;20.85;45.64
52625;BME280;38519;52.540;13.410;2022-08-06T10:27:28;101917.34;;;21.03;44.67
52625;BME280;38519;52.540;13.410;2022-08-06T10:29:54;101914.53;;;21.00;43.78
52625;BME280;38519;52.540;13.410;2022-08-06T10:32:25;101910.16;;;21.19;43.13
52625;BME280;38519;52.540;13.410;2022-08-06T10:34:51;101908.28;;;21.54;43.56
52625;BME280;38519;52.540;13.410;2022-08-06T10:37:17;101905.44;;;21.88;41.15
52625;BME280;38519;52.540;13.410;2022-08-06T10:39:45;101900.06;;;21.67;41.64
52625;BME280;38519;52.540;13.410;2022-08-06T10:42:11;101907.53;;;21.38;42.68
52625;BME280;38519;52.540;13.410;2022-08-06T10:44:36;101908.44;;;20.67;44.67
52625;BME280;38519;52.540;13.410;2022-08-06T10:47:02;101907.25;;;20.44;44.88
52625;BME280;38519;52.540;13.410;2022-08-06T10:49:28;101908.19;;;20.28;45.19
52625;BME280;38519;52.540;13.410;2022-08-06T10:51:54;101912.09;;;19.85;46.21
52625;BME280;38519;52.540;13.410;2022-08-06T10:54:21;101903.94;;;19.65;46.03
52625;BME280;38519;52.540;13.410;2022-08-06T10:56:46;101913.56;;;19.63;44.95
52625;BME280;38519;52.540;13.410;2022-08-06T10:59:15;101897.81;;;20.16;43.04
52625;BME280;38519;52.540;13.410;2022-08-06T11:14:10;101891.16;;;20.75;43.29
52625;BME280;38519;52.540;13.410;2022-08-06T11:16:35;101897.13;;;20.53;43.10
52625;BME280;38519;52.540;13.410;2022-08-06T11:21:36;101900.94;;;21.30;40.94
52625;BME280;38519;52.540;13.410;2022-08-06T11:24:02;101894.31;;;21.58;39.59
52625;BME280;38519;52.540;13.410;2022-08-06T11:26:33;101885.72;;;21.45;39.34
52625;BME280;38519;52.540;13.410;2022-08-06T11:28:59;101894.84;;;21.51;39.57
52625;BME280;38519;52.540;13.410;2022-08-06T11:31:38;101896.78;;;20.81;41.00
52625;BME280;38519;52.540;13.410;2022-08-06T11:34:05;101883.22;;;20.41;42.68
52625;BME280;38519;52.540;13.410;2022-08-06T11:36:42;101888.72;;;20.11;43.53
52625;BME280;38519;52.540;13.410;2022-08-06T11:39:08;101880.28;;;20.01;43.19
52625;BME280;38519;52.540;13.410;2022-08-06T11:41:42;101884.94;;;20.74;42.58
52625;BME280;38519;52.540;13.410;2022-08-06T11:44:08;101873.66;;;21.34;40.97
52625;BME280;38519;52.540;13.410;2022-08-06T11:54:12;101878.16;;;21.73;39.09
52625;BME280;38519;52.540;13.410;2022-08-06T11:59:22;101877.09;;;21.69;39.12
52625;BME280;38519;52.540;13.410;2022-08-06T12:01:47;101878.72;;;21.85;38.69
52625;BME280;38519;52.540;13.410;2022-08-06T12:09:41;101884.38;;;22.74;36.11
52625;BME280;38519;52.540;13.410;2022-08-06T12:12:48;101885.22;;;22.73;35.94
52625;BME280;38519;52.540;13.410;2022-08-06T12:14:56;101882.28;;;22.26;35.82
52625;BME280;38519;52.540;13.410;2022-08-06T12:17:22;101879.09;;;22.76;35.23
52625;BME280;38519;52.540;13.410;2022-08-06T12:19:52;101877.72;;;22.85;34.83
52625;BME280;38519;52.540;13.410;2022-08-06T12:22:18;101867.84;;;22.60;35.45
52625;BME280;38519;52.540;13.410;2022-08-06T12:24:45;101866.47;;;21.89;37.31
52625;BME280;38519;52.540;13.410;2022-08-06T12:27:11;101876.59;;;21.21;37.41
52625;BME280;38519;52.540;13.410;2022-08-06T12:29:37;101871.84;;;21.33;37.32
52625;BME280;38519;52.540;13.410;2022-08-06T12:34:50;101873.16;;;22.60;34.29
52625;BME280;38519;52.540;13.410;2022-08-06T12:37:16;101872.31;;;22.21;34.95
52625;BME280;38519;52.540;13.410;2022-08-06T12:39:42;101870.75;;;21.85;35.47
52625;BME280;38519;52.540;13.410;2022-08-06T12:42:26;101876.78;;;21.43;37.70
52625;BME280;38519;52.540;13.410;2022-08-06T12:44:51;101878.31;;;21.20;37.95
52625;BME280;38519;52.540;13.410;2022-08-06T12:47:17;101869.41;;;21.75;36.09
52625;BME280;38519;52.540;13.410;2022-08-06T12:49:42;101867.66;;;21.76;36.49
52625;BME280;38519;52.540;13.410;2022-08-06T12:52:17;101871.66;;;21.66;37.00
52625;BME280;38519;52.540;13.410;2022-08-06T12:54:46;101872.75;;;21.52;36.86
52625;BME280;38519;52.540;13.410;2022-08-06T12:57:24;101871.94;;;21.53;36.86
52625;BME280;38519;52.540;13.410;2022-08-06T12:59:51;101870.31;;;21.95;35.94
52625;BME280;38519;52.540;13.410;2022-08-06T13:02:17;101869.03;;;22.07;35.84
52625;BME280;38519;52.540;13.410;2022-08-06T13:04:45;101866.75;;;21.75;36.61
52625;BME280;38519;52.540;13.410;2022-08-06T13:07:11;101864.50;;;21.65;36.36
52625;BME280;38519;52.540;13.410;2022-08-06T13:09:37;101872.16;;;21.57;37.10
52625;BME280;38519;52.540;13.410;2022-08-06T13:14:47;101871.09;;;21.93;36.33
52625;BME280;38519;52.540;13.410;2022-08-06T13:17:12;101861.84;;;21.65;36.34
52625;BME280;38519;52.540;13.410;2022-08-06T13:19:49;101870.16;;;23.40;34.06
52625;BME280;38519;52.540;13.410;2022-08-06T13:22:15;101868.00;;;22.86;34.40
52625;BME280;38519;52.540;13.410;2022-08-06T13:24:40;101864.66;;;24.56;31.67
52625;BME280;38519;52.540;13.410;2022-08-06T13:27:06;101865.50;;;25.67;28.98
52625;BME280;38519;52.540;13.410;2022-08-06T13:29:31;101861.00;;;25.08;29.64
52625;BME280;38519;52.540;13.410;2022-08-06T13:31:57;101858.34;;;23.80;31.01
52625;BME280;38519;52.540;13.410;2022-08-06T13:34:24;101851.09;;;23.29;33.17
52625;BME280;38519;52.540;13.410;2022-08-06T13:36:53;101860.50;;;22.98;33.35
52625;BME280;38519;52.540;13.410;2022-08-06T13:39:20;101862.03;;;22.70;34.45
52625;BME280;38519;52.540;13.410;2022-08-06T13:41:46;101864.91;;;22.54;34.65
52625;BME280;38519;52.540;13.410;2022-08-06T13:44:31;101859.03;;;22.01;35.26
52625;BME280;38519;52.540;13.410;2022-08-06T13:46:56;101850.06;;;21.99;35.24
52625;BME280;38519;52.540;13.410;2022-08-06T13:49:21;101862.22;;;22.75;34.55
52625;BME280;38519;52.540;13.410;2022-08-06T13:51:47;101859.88;;;22.41;34.89
52625;BME280;38519;52.540;13.410;2022-08-06T13:54:12;101856.97;;;22.15;35.58
52625;BME280;38519;52.540;13.410;2022-08-06T13:56:38;101862.47;;;21.98;35.83
52625;BME280;38519;52.540;13.410;2022-08-06T13:59:03;101859.53;;;21.73;35.74